sensor_id;sensor_type;location;lat;lon;timestamp;temperature;humidity
31046;DHT22;17711;54.018;9.300;2023-08-01T00:01:03;18.40;99.90
31046;DHT22;17711;54.018;9.300;2023-08-01T00:03:32;18.30;99.90
31046;DHT22;17711;54.018;9.300;2023-08-01T00:06:01;18.20;99.90
31046;DHT22;17711;54.018;9.300;2023-08-01T00:08:30;18.20;99.90
31046;DHT22;17711;54.018;9.300;2023-08-01T00:11:00;18.20;99.90
31046;DHT22;17711;54.018;9.300;2023-08-01T00:13:28;18.20;99.90
31046;DHT22;17711;54.018;9.300;2023-08-01T00:15:57;18.20;99.90
31046;DHT22;17711;54.018;9.300;2023-08-01T00:18:34;18.10;99.90
31046;DHT22;17711;54.018;9.300;2023-08-01T00:21:03;18.10;99.90
31046;DHT22;17711;54.018;9.300;2023-08-01T00:23:32;18.10;99.90
31046;DHT22;17711;54.018;9.300;2023-08-01T00:26:02;18.10;99.90
31046;DHT22;17711;54.018;9.300;2023-08-01T00:28:31;18.10;99.90
31046;DHT22;17711;54.018;9.300;2023-08-01T00:31:07;18.10;99.90
31046;DHT22;17711;54.018;9.300;2023-08-01T00:33:37;18.10;99.90
31046;DHT22;17711;54.018;9.300;2023-08-01T00:36:05;18.00;99.90
31046;DHT22;17711;54.018;9.300;2023-08-01T00:38:37;18.00;99.90
31046;DHT22;17711;54.018;9.300;2023-08-01T00:41:07;17.90;99.90
31046;DHT22;17711;54.018;9.300;2023-08-01T00:43:36;17.90;99.90
31046;DHT22;17711;54.018;9.300;2023-08-01T00:46:05;17.90;99.90
31046;DHT22;17711;54.018;9.300;2023-08-01T00:48:35;17.90;99.90
31046;DHT22;17711;54.018;9.300;2023-08-01T00:51:05;17.90;99.90
31046;DHT22;17711;54.018;9.300;2023-08-01T00:53:34;17.90;99.90
31046;DHT22;17711;54.018;9.300;2023-08-01T00:56:03;17.90;99.90
31046;DHT22;17711;54.018;9.300;2023-08-01T00:58:34;17.90;99.90
31046;DHT22;17711;54.018;9.300;2023-08-01T01:01:02;17.90;99.90
31046;DHT22;17711;54.018;9.300;2023-08-01T01:03:32;17.90;99.90
31046;DHT22;17711;54.018;9.300;2023-08-01T01:06:05;17.90;99.90
31046;DHT22;17711;54.018;9.300;2023-08-01T01:08:35;17.90;99.90
31046;DHT22;17711;54.018;9.300;2023-08-01T01:11:03;17.90;99.90
31046;DHT22;17711;54.018;9.300;2023-08-01T01:13:34;17.80;99.90
31046;DHT22;17711;54.018;9.300;2023-08-01T01:16:02;17.80;99.90
31046;DHT22;17711;54.018;9.300;2023-08-01T01:18:31;17.90;99.90
31046;DHT22;17711;54.018;9.300;2023-08-01T01:21:01;17.80;99.90
31046;DHT22;17711;54.018;9.300;2023-08-01T01:23:30;17.80;99.90
31046;DHT22;17711;54.018;9.300;2023-08-01T01:26:00;17.70;99.90
31046;DHT22;17711;54.018;9.300;2023-08-01T01:28:30;17.70;99.90
31046;DHT22;17711;54.018;9.300;2023-08-01T01:31:00;17.60;99.90
31046;DHT22;17711;54.018;9.300;2023-08-01T01:33:30;17.60;99.90
31046;DHT22;17711;54.018;9.300;2023-08-01T01:36:01;17.50;99.90
31046;DHT22;17711;54.018;9.300;2023-08-01T01:38:30;17.40;99.90
31046;DHT22;17711;54.018;9.300;2023-08-01T01:40:59;17.30;99.90
31046;DHT22;17711;54.018;9.300;2023-08-01T01:43:27;17.30;99.90
31046;DHT22;17711;54.018;9.300;2023-08-01T01:45:56;17.20;99.90
31046;DHT22;17711;54.018;9.300;2023-08-01T01:48:23;17.10;99.90
31046;DHT22;17711;54.018;9.300;2023-08-01T01:50:52;17.20;99.90
31046;DHT22;17711;54.018;9.300;2023-08-01T01:53:22;17.20;99.90
31046;DHT22;17711;54.018;9.300;2023-08-01T01:55:51;17.20;99.90
31046;DHT22;17711;54.018;9.300;2023-08-01T01:58:20;17.20;99.90
31046;DHT22;17711;54.018;9.300;2023-08-01T02:00:49;17.20;99.90
31046;DHT22;17711;54.018;9.300;2023-08-01T02:03:18;17.20;99.90
31046;DHT22;17711;54.018;9.300;2023-08-01T02:05:47;17.20;99.90
31046;DHT22;17711;54.018;9.300;2023-08-01T02:08:15;17.20;99.90
31046;DHT22;17711;54.018;9.300;2023-08-01T02:10:45;17.20;99.90
31046;DHT22;17711;54.018;9.300;2023-08-01T02:13:14;17.20;99.90
31046;DHT22;17711;54.018;9.300;2023-08-01T02:15:42;17.20;99.90
31046;DHT22;17711;54.018;9.300;2023-08-01T02:18:11;17.20;99.90
31046;DHT22;17711;54.018;9.300;2023-08-01T02:20:40;17.10;99.90
31046;DHT22;17711;54.018;9.300;2023-08-01T02:23:08;17.10;99.90
31046;DHT22;17711;54.018;9.300;2023-08-01T02:25:38;17.10;99.90
31046;DHT22;17711;54.018;9.300;2023-08-01T02:28:09;17.00;99.90
31046;DHT22;17711;54.018;9.300;2023-08-01T02:30:37;17.00;99.90
31046;DHT22;17711;54.018;9.300;2023-08-01T02:33:06;17.00;99.90
31046;DHT22;17711;54.018;9.300;2023-08-01T02:35:35;17.10;99.90
31046;DHT22;17711;54.018;9.300;2023-08-01T02:38:04;17.10;99.90
31046;DHT22;17711;54.018;9.300;2023-08-01T02:40:32;17.10;99.90
31046;DHT22;17711;54.018;9.300;2023-08-01T02:43:01;17.10;99.90
31046;DHT22;17711;54.018;9.300;2023-08-01T02:45:31;17.10;99.90
31046;DHT22;17711;54.018;9.300;2023-08-01T02:48:00;17.00;99.90
31046;DHT22;17711;54.018;9.300;2023-08-01T02:50:28;17.10;99.90
31046;DHT22;17711;54.018;9.300;2023-08-01T02:52:57;17.10;99.90
31046;DHT22;17711;54.018;9.300;2023-08-01T02:55:26;17.10;99.90
31046;DHT22;17711;54.018;9.300;2023-08-01T02:57:54;17.10;99.90
31046;DHT22;17711;54.018;9.300;2023-08-01T03:00:23;17.10;99.90
31046;DHT22;17711;54.018;9.300;2023-08-01T03:02:54;17.00;99.90
31046;DHT22;17711;54.018;9.300;2023-08-01T03:05:24;17.10;99.90
31046;DHT22;17711;54.018;9.300;2023-08-01T03:07:53;17.10;99.90
31046;DHT22;17711;54.018;9.300;2023-08-01T03:10:21;17.10;99.90
31046;DHT22;17711;54.018;9.300;2023-08-01T03:12:56;17.10;99.90
31046;DHT22;17711;54.018;9.300;2023-08-01T03:15:25;17.10;99.90
31046;DHT22;17711;54.018;9.300;2023-08-01T03:17:55;17.10;99.90
31046;DHT22;17711;54.018;9.300;2023-08-01T03:20:24;17.10;99.90
31046;DHT22;17711;54.018;9.300;2023-08-01T03:22:52;17.10;99.90
31046;DHT22;17711;54.018;9.300;2023-08-01T03:25:21;17.10;99.90
31046;DHT22;17711;54.018;9.300;2023-08-01T03:27:50;17.10;99.90
31046;DHT22;17711;54.018;9.300;2023-08-01T03:30:18;17.10;99.90
31046;DHT22;17711;54.018;9.300;2023-08-01T03:32:48;17.10;99.90
31046;DHT22;17711;54.018;9.300;2023-08-01T03:35:18;17.10;99.90
31046;DHT22;17711;54.018;9.300;2023-08-01T03:37:47;17.10;99.90
31046;DHT22;17711;54.018;9.300;2023-08-01T03:40:15;17.10;99.90
31046;DHT22;17711;54.018;9.300;2023-08-01T03:42:44;17.10;99.90
31046;DHT22;17711;54.018;9.300;2023-08-01T03:45:13;17.10;99.90
31046;DHT22;17711;54.018;9.300;2023-08-01T03:47:41;17.20;99.90
31046;DHT22;17711;54.018;9.300;2023-08-01T03:50:10;17.20;99.90
31046;DHT22;17711;54.018;9.300;2023-08-01T03:52:42;17.30;99.90
31046;DHT22;17711;54.018;9.300;2023-08-01T03:55:11;17.30;99.90
31046;DHT22;17711;54.018;9.300;2023-08-01T03:57:39;17.30;99.90
31046;DHT22;17711;54.018;9.300;2023-08-01T04:00:10;17.40;99.90
31046;DHT22;17711;54.018;9.300;2023-08-01T04:02:41;17.50;99.90
31046;DHT22;17711;54.018;9.300;2023-08-01T04:05:14;17.50;99.90
31046;DHT22;17711;54.018;9.300;2023-08-01T04:07:44;17.60;99.90
31046;DHT22;17711;54.018;9.300;2023-08-01T04:10:13;17.60;99.90
31046;DHT22;17711;54.018;9.300;2023-08-01T04:12:42;17.60;99.90
31046;DHT22;17711;54.018;9.300;2023-08-01T04:15:11;17.70;99.90
31046;DHT22;17711;54.018;9.300;2023-08-01T04:17:40;17.70;99.90
31046;DHT22;17711;54.018;9.300;2023-08-01T04:20:09;17.70;99.90
31046;DHT22;17711;54.018;9.300;2023-08-01T04:22:38;17.70;99.90
31046;DHT22;17711;54.018;9.300;2023-08-01T04:25:08;17.70;99.90
31046;DHT22;17711;54.018;9.300;2023-08-01T04:27:37;17.70;99.90
31046;DHT22;17711;54.018;9.300;2023-08-01T04:30:07;17.70;99.90
31046;DHT22;17711;54.018;9.300;2023-08-01T04:32:36;17.70;99.90
31046;DHT22;17711;54.018;9.300;2023-08-01T04:35:05;17.70;99.90
31046;DHT22;17711;54.018;9.300;2023-08-01T04:37:34;17.80;99.90
31046;DHT22;17711;54.018;9.300;2023-08-01T04:40:03;17.70;99.90
31046;DHT22;17711;54.018;9.300;2023-08-01T04:42:33;17.80;99.90
31046;DHT22;17711;54.018;9.300;2023-08-01T04:45:02;17.80;99.90
31046;DHT22;17711;54.018;9.300;2023-08-01T04:47:31;17.80;99.90
31046;DHT22;17711;54.018;9.300;2023-08-01T04:49:59;17.80;99.90
31046;DHT22;17711;54.018;9.300;2023-08-01T04:52:28;17.90;99.90
31046;DHT22;17711;54.018;9.300;2023-08-01T04:54:57;17.90;99.90
31046;DHT22;17711;54.018;9.300;2023-08-01T04:57:26;17.90;99.90
31046;DHT22;17711;54.018;9.300;2023-08-01T04:59:56;17.80;99.90
31046;DHT22;17711;54.018;9.300;2023-08-01T05:02:24;17.80;99.90
31046;DHT22;17711;54.018;9.300;2023-08-01T05:04:53;17.80;99.90
31046;DHT22;17711;54.018;9.300;2023-08-01T05:07:22;17.90;99.90
31046;DHT22;17711;54.018;9.300;2023-08-01T05:09:51;17.90;99.90
31046;DHT22;17711;54.018;9.300;2023-08-01T05:12:19;18.00;99.90
31046;DHT22;17711;54.018;9.300;2023-08-01T05:14:48;18.00;99.90
31046;DHT22;17711;54.018;9.300;2023-08-01T05:17:18;18.10;99.90
31046;DHT22;17711;54.018;9.300;2023-08-01T05:19:47;18.20;99.90
31046;DHT22;17711;54.018;9.300;2023-08-01T05:22:16;18.30;99.90
31046;DHT22;17711;54.018;9.300;2023-08-01T05:24:45;18.30;99.90
31046;DHT22;17711;54.018;9.300;2023-08-01T05:27:15;18.30;99.90
31046;DHT22;17711;54.018;9.300;2023-08-01T05:29:43;18.30;99.90
31046;DHT22;17711;54.018;9.300;2023-08-01T05:32:12;18.20;99.90
31046;DHT22;17711;54.018;9.300;2023-08-01T05:34:43;18.20;99.90
31046;DHT22;17711;54.018;9.300;2023-08-01T05:37:11;18.20;99.90
31046;DHT22;17711;54.018;9.300;2023-08-01T05:39:40;18.10;99.90
31046;DHT22;17711;54.018;9.300;2023-08-01T05:42:09;18.00;99.90
31046;DHT22;17711;54.018;9.300;2023-08-01T05:44:37;18.00;99.90
31046;DHT22;17711;54.018;9.300;2023-08-01T05:47:06;17.90;99.90
31046;DHT22;17711;54.018;9.300;2023-08-01T05:49:35;17.90;99.90
31046;DHT22;17711;54.018;9.300;2023-08-01T05:52:06;17.80;99.90
31046;DHT22;17711;54.018;9.300;2023-08-01T05:54:35;17.90;99.90
31046;DHT22;17711;54.018;9.300;2023-08-01T05:57:04;17.90;99.90
31046;DHT22;17711;54.018;9.300;2023-08-01T05:59:33;18.00;99.90
31046;DHT22;17711;54.018;9.300;2023-08-01T06:02:03;18.10;99.90
31046;DHT22;17711;54.018;9.300;2023-08-01T06:04:32;18.10;99.90
31046;DHT22;17711;54.018;9.300;2023-08-01T06:07:00;18.20;99.90
31046;DHT22;17711;54.018;9.300;2023-08-01T06:09:31;18.20;99.90
31046;DHT22;17711;54.018;9.300;2023-08-01T06:11:59;18.40;99.90
31046;DHT22;17711;54.018;9.300;2023-08-01T06:14:28;18.60;99.90
31046;DHT22;17711;54.018;9.300;2023-08-01T06:16:57;18.70;99.90
31046;DHT22;17711;54.018;9.300;2023-08-01T06:19:26;18.80;99.90
31046;DHT22;17711;54.018;9.300;2023-08-01T06:21:55;18.70;99.90
31046;DHT22;17711;54.018;9.300;2023-08-01T06:24:24;18.60;99.90
31046;DHT22;17711;54.018;9.300;2023-08-01T06:26:54;18.60;99.90
31046;DHT22;17711;54.018;9.300;2023-08-01T06:29:23;18.60;99.90
31046;DHT22;17711;54.018;9.300;2023-08-01T06:31:52;18.60;99.90
31046;DHT22;17711;54.018;9.300;2023-08-01T06:34:21;18.60;99.90
31046;DHT22;17711;54.018;9.300;2023-08-01T06:36:52;18.60;99.90
31046;DHT22;17711;54.018;9.300;2023-08-01T06:39:21;18.60;99.90
31046;DHT22;17711;54.018;9.300;2023-08-01T06:41:50;18.70;99.90
31046;DHT22;17711;54.018;9.300;2023-08-01T06:44:20;18.70;99.90
31046;DHT22;17711;54.018;9.300;2023-08-01T06:46:49;18.70;99.90
31046;DHT22;17711;54.018;9.300;2023-08-01T06:49:18;18.80;99.90
31046;DHT22;17711;54.018;9.300;2023-08-01T06:51:47;18.80;99.90
31046;DHT22;17711;54.018;9.300;2023-08-01T06:54:16;18.80;99.90
31046;DHT22;17711;54.018;9.300;2023-08-01T06:56:48;18.80;99.90
31046;DHT22;17711;54.018;9.300;2023-08-01T06:59:21;18.70;99.90
31046;DHT22;17711;54.018;9.300;2023-08-01T07:01:50;18.70;99.90
31046;DHT22;17711;54.018;9.300;2023-08-01T07:04:19;18.70;99.90
31046;DHT22;17711;54.018;9.300;2023-08-01T07:06:48;18.80;99.90
31046;DHT22;17711;54.018;9.300;2023-08-01T07:09:17;19.00;99.90
31046;DHT22;17711;54.018;9.300;2023-08-01T07:11:46;19.20;99.90
31046;DHT22;17711;54.018;9.300;2023-08-01T07:14:16;19.60;99.90
31046;DHT22;17711;54.018;9.300;2023-08-01T07:16:47;19.60;99.90
31046;DHT22;17711;54.018;9.300;2023-08-01T07:19:18;19.70;99.90
31046;DHT22;17711;54.018;9.300;2023-08-01T07:21:48;19.80;99.90
31046;DHT22;17711;54.018;9.300;2023-08-01T07:24:17;19.80;99.90
31046;DHT22;17711;54.018;9.300;2023-08-01T07:26:46;19.80;99.90
31046;DHT22;17711;54.018;9.300;2023-08-01T07:29:15;19.60;99.90
31046;DHT22;17711;54.018;9.300;2023-08-01T07:31:44;19.60;99.90
31046;DHT22;17711;54.018;9.300;2023-08-01T07:34:14;19.60;99.90
31046;DHT22;17711;54.018;9.300;2023-08-01T07:36:45;19.70;99.90
31046;DHT22;17711;54.018;9.300;2023-08-01T07:39:15;19.80;99.90
31046;DHT22;17711;54.018;9.300;2023-08-01T07:41:44;19.80;99.90
31046;DHT22;17711;54.018;9.300;2023-08-01T07:44:13;19.80;99.90
31046;DHT22;17711;54.018;9.300;2023-08-01T07:46:42;19.90;99.90
31046;DHT22;17711;54.018;9.300;2023-08-01T07:49:11;20.00;99.90
31046;DHT22;17711;54.018;9.300;2023-08-01T07:51:41;20.10;99.90
31046;DHT22;17711;54.018;9.300;2023-08-01T07:54:10;20.20;99.90
31046;DHT22;17711;54.018;9.300;2023-08-01T07:56:39;20.40;99.90
31046;DHT22;17711;54.018;9.300;2023-08-01T07:59:09;20.60;99.90
31046;DHT22;17711;54.018;9.300;2023-08-01T08:01:39;20.70;99.90
31046;DHT22;17711;54.018;9.300;2023-08-01T08:04:09;20.90;99.90
31046;DHT22;17711;54.018;9.300;2023-08-01T08:06:39;21.10;99.90
31046;DHT22;17711;54.018;9.300;2023-08-01T08:09:09;21.20;99.90
31046;DHT22;17711;54.018;9.300;2023-08-01T08:11:38;21.00;99.90
31046;DHT22;17711;54.018;9.300;2023-08-01T08:14:07;20.40;99.90
31046;DHT22;17711;54.018;9.300;2023-08-01T08:16:36;19.80;99.90
31046;DHT22;17711;54.018;9.300;2023-08-01T08:19:05;19.60;99.90
31046;DHT22;17711;54.018;9.300;2023-08-01T08:21:34;19.40;99.90
31046;DHT22;17711;54.018;9.300;2023-08-01T08:24:04;19.20;99.90
31046;DHT22;17711;54.018;9.300;2023-08-01T08:26:34;19.10;99.90
31046;DHT22;17711;54.018;9.300;2023-08-01T08:29:05;19.20;99.90
31046;DHT22;17711;54.018;9.300;2023-08-01T08:31:34;19.20;99.90
31046;DHT22;17711;54.018;9.300;2023-08-01T08:34:03;19.30;99.90
31046;DHT22;17711;54.018;9.300;2023-08-01T08:36:32;19.50;99.90
31046;DHT22;17711;54.018;9.300;2023-08-01T08:39:00;19.90;99.90
31046;DHT22;17711;54.018;9.300;2023-08-01T08:41:37;20.60;99.90
31046;DHT22;17711;54.018;9.300;2023-08-01T08:44:11;20.80;99.90
31046;DHT22;17711;54.018;9.300;2023-08-01T08:46:44;20.30;99.90
31046;DHT22;17711;54.018;9.300;2023-08-01T08:49:13;20.10;99.90
31046;DHT22;17711;54.018;9.300;2023-08-01T08:51:44;19.80;99.90
31046;DHT22;17711;54.018;9.300;2023-08-01T08:54:14;19.80;99.90
31046;DHT22;17711;54.018;9.300;2023-08-01T08:56:45;20.10;99.90
31046;DHT22;17711;54.018;9.300;2023-08-01T08:59:14;20.80;99.90
31046;DHT22;17711;54.018;9.300;2023-08-01T09:01:44;21.90;99.90
31046;DHT22;17711;54.018;9.300;2023-08-01T09:04:15;21.80;99.90
31046;DHT22;17711;54.018;9.300;2023-08-01T09:06:48;21.20;99.90
31046;DHT22;17711;54.018;9.300;2023-08-01T09:09:19;20.80;99.90
31046;DHT22;17711;54.018;9.300;2023-08-01T09:11:53;20.30;99.90
31046;DHT22;17711;54.018;9.300;2023-08-01T09:14:25;20.10;99.90
31046;DHT22;17711;54.018;9.300;2023-08-01T09:17:04;19.90;99.90
31046;DHT22;17711;54.018;9.300;2023-08-01T09:19:35;20.10;99.90
31046;DHT22;17711;54.018;9.300;2023-08-01T09:22:10;21.10;99.90
31046;DHT22;17711;54.018;9.300;2023-08-01T09:24:51;21.80;99.90
31046;DHT22;17711;54.018;9.300;2023-08-01T09:27:22;21.70;99.90
31046;DHT22;17711;54.018;9.300;2023-08-01T09:29:51;21.20;99.90
31046;DHT22;17711;54.018;9.300;2023-08-01T09:32:22;20.70;99.90
31046;DHT22;17711;54.018;9.300;2023-08-01T09:34:58;20.40;99.90
31046;DHT22;17711;54.018;9.300;2023-08-01T09:37:38;20.10;99.90
31046;DHT22;17711;54.018;9.300;2023-08-01T09:40:10;20.20;99.90
31046;DHT22;17711;54.018;9.300;2023-08-01T09:42:53;20.30;99.90
31046;DHT22;17711;54.018;9.300;2023-08-01T09:45:30;20.80;99.90
31046;DHT22;17711;54.018;9.300;2023-08-01T09:48:00;21.20;99.90
31046;DHT22;17711;54.018;9.300;2023-08-01T09:50:29;21.10;99.90
31046;DHT22;17711;54.018;9.300;2023-08-01T09:53:07;21.00;99.90
31046;DHT22;17711;54.018;9.300;2023-08-01T09:55:37;20.70;99.90
31046;DHT22;17711;54.018;9.300;2023-08-01T09:58:10;20.50;99.90
31046;DHT22;17711;54.018;9.300;2023-08-01T10:00:42;20.40;99.90
31046;DHT22;17711;54.018;9.300;2023-08-01T10:03:15;20.40;99.90
31046;DHT22;17711;54.018;9.300;2023-08-01T10:05:49;20.40;99.90
31046;DHT22;17711;54.018;9.300;2023-08-01T10:08:22;20.50;99.90
31046;DHT22;17711;54.018;9.300;2023-08-01T10:10:52;21.20;99.90
31046;DHT22;17711;54.018;9.300;2023-08-01T10:13:29;22.60;99.90
31046;DHT22;17711;54.018;9.300;2023-08-01T10:15:59;23.90;99.90
31046;DHT22;17711;54.018;9.300;2023-08-01T10:18:29;25.20;99.90
31046;DHT22;17711;54.018;9.300;2023-08-01T10:21:00;25.50;99.90
31046;DHT22;17711;54.018;9.300;2023-08-01T10:23:32;24.80;99.90
31046;DHT22;17711;54.018;9.300;2023-08-01T10:26:04;24.00;99.90
31046;DHT22;17711;54.018;9.300;2023-08-01T10:28:36;23.10;99.90
31046;DHT22;17711;54.018;9.300;2023-08-01T10:31:09;22.50;99.90
31046;DHT22;17711;54.018;9.300;2023-08-01T10:33:41;22.10;99.90
31046;DHT22;17711;54.018;9.300;2023-08-01T10:36:15;21.70;99.90
31046;DHT22;17711;54.018;9.300;2023-08-01T10:38:48;21.30;99.90
31046;DHT22;17711;54.018;9.300;2023-08-01T10:41:25;21.20;99.90
31046;DHT22;17711;54.018;9.300;2023-08-01T10:44:10;21.20;99.90
31046;DHT22;17711;54.018;9.300;2023-08-01T10:46:47;21.30;99.90
31046;DHT22;17711;54.018;9.300;2023-08-01T10:49:19;21.60;99.90
31046;DHT22;17711;54.018;9.300;2023-08-01T10:51:52;21.80;99.90
31046;DHT22;17711;54.018;9.300;2023-08-01T10:54:23;22.50;99.90
31046;DHT22;17711;54.018;9.300;2023-08-01T10:56:53;23.10;99.90
31046;DHT22;17711;54.018;9.300;2023-08-01T10:59:27;23.90;99.90
31046;DHT22;17711;54.018;9.300;2023-08-01T11:02:00;24.60;99.90
31046;DHT22;17711;54.018;9.300;2023-08-01T11:04:30;25.20;99.90
31046;DHT22;17711;54.018;9.300;2023-08-01T11:06:59;25.60;99.90
31046;DHT22;17711;54.018;9.300;2023-08-01T11:09:30;25.90;99.90
31046;DHT22;17711;54.018;9.300;2023-08-01T11:12:00;26.30;99.90
31046;DHT22;17711;54.018;9.300;2023-08-01T11:14:33;27.30;99.90
31046;DHT22;17711;54.018;9.300;2023-08-01T11:17:02;28.30;99.90
31046;DHT22;17711;54.018;9.300;2023-08-01T11:19:31;29.20;97.20
31046;DHT22;17711;54.018;9.300;2023-08-01T11:22:09;29.70;91.50
31046;DHT22;17711;54.018;9.300;2023-08-01T11:24:39;30.00;90.50
31046;DHT22;17711;54.018;9.300;2023-08-01T11:27:10;29.60;93.50
31046;DHT22;17711;54.018;9.300;2023-08-01T11:29:41;28.70;98.00
31046;DHT22;17711;54.018;9.300;2023-08-01T11:32:10;28.70;99.90
31046;DHT22;17711;54.018;9.300;2023-08-01T11:34:40;28.80;99.90
31046;DHT22;17711;54.018;9.300;2023-08-01T11:37:18;29.00;99.90
31046;DHT22;17711;54.018;9.300;2023-08-01T11:39:48;29.40;95.60
31046;DHT22;17711;54.018;9.300;2023-08-01T11:42:18;30.30;99.90
31046;DHT22;17711;54.018;9.300;2023-08-01T11:44:50;31.50;71.00
31046;DHT22;17711;54.018;9.300;2023-08-01T11:47:20;31.40;57.20
31046;DHT22;17711;54.018;9.300;2023-08-01T11:49:50;30.60;58.90
31046;DHT22;17711;54.018;9.300;2023-08-01T11:52:26;29.90;63.40
31046;DHT22;17711;54.018;9.300;2023-08-01T11:54:59;29.00;77.70
31046;DHT22;17711;54.018;9.300;2023-08-01T11:57:29;29.20;92.80
31046;DHT22;17711;54.018;9.300;2023-08-01T12:00:04;28.70;67.60
31046;DHT22;17711;54.018;9.300;2023-08-01T12:02:40;27.90;83.20
31046;DHT22;17711;54.018;9.300;2023-08-01T12:05:22;27.90;99.90
31046;DHT22;17711;54.018;9.300;2023-08-01T12:07:53;28.30;87.30
31046;DHT22;17711;54.018;9.300;2023-08-01T12:10:26;28.70;86.70
31046;DHT22;17711;54.018;9.300;2023-08-01T12:13:19;29.00;76.80
31046;DHT22;17711;54.018;9.300;2023-08-01T12:15:51;29.30;74.40
31046;DHT22;17711;54.018;9.300;2023-08-01T12:18:22;29.30;74.10
31046;DHT22;17711;54.018;9.300;2023-08-01T12:21:12;30.00;75.40
31046;DHT22;17711;54.018;9.300;2023-08-01T12:23:40;31.00;62.20
31046;DHT22;17711;54.018;9.300;2023-08-01T12:26:09;31.20;56.80
31046;DHT22;17711;54.018;9.300;2023-08-01T12:28:43;31.40;58.80
31046;DHT22;17711;54.018;9.300;2023-08-01T12:31:22;32.10;66.70
31046;DHT22;17711;54.018;9.300;2023-08-01T12:33:52;32.60;57.90
31046;DHT22;17711;54.018;9.300;2023-08-01T12:36:21;32.40;57.60
31046;DHT22;17711;54.018;9.300;2023-08-01T12:38:51;31.90;64.70
31046;DHT22;17711;54.018;9.300;2023-08-01T12:41:21;32.40;68.00
31046;DHT22;17711;54.018;9.300;2023-08-01T12:43:53;31.80;56.90
31046;DHT22;17711;54.018;9.300;2023-08-01T12:46:24;30.90;57.50
31046;DHT22;17711;54.018;9.300;2023-08-01T12:48:55;30.10;68.40
31046;DHT22;17711;54.018;9.300;2023-08-01T12:51:25;29.50;68.90
31046;DHT22;17711;54.018;9.300;2023-08-01T12:53:54;30.10;81.60
31046;DHT22;17711;54.018;9.300;2023-08-01T12:56:23;30.00;81.80
31046;DHT22;17711;54.018;9.300;2023-08-01T12:58:55;30.00;62.00
31046;DHT22;17711;54.018;9.300;2023-08-01T13:01:26;30.40;77.00
31046;DHT22;17711;54.018;9.300;2023-08-01T13:03:56;31.00;62.50
31046;DHT22;17711;54.018;9.300;2023-08-01T13:06:26;30.20;74.80
31046;DHT22;17711;54.018;9.300;2023-08-01T13:08:56;30.70;66.30
31046;DHT22;17711;54.018;9.300;2023-08-01T13:11:26;31.40;75.10
31046;DHT22;17711;54.018;9.300;2023-08-01T13:13:55;31.50;71.10
31046;DHT22;17711;54.018;9.300;2023-08-01T13:16:26;30.70;60.80
31046;DHT22;17711;54.018;9.300;2023-08-01T13:18:55;30.50;58.70
31046;DHT22;17711;54.018;9.300;2023-08-01T13:21:23;30.30;59.80
31046;DHT22;17711;54.018;9.300;2023-08-01T13:23:52;30.80;72.10
31046;DHT22;17711;54.018;9.300;2023-08-01T13:26:21;30.60;62.20
31046;DHT22;17711;54.018;9.300;2023-08-01T13:28:50;29.90;67.40
31046;DHT22;17711;54.018;9.300;2023-08-01T13:31:20;29.40;64.30
31046;DHT22;17711;54.018;9.300;2023-08-01T13:33:50;30.20;65.90
31046;DHT22;17711;54.018;9.300;2023-08-01T13:36:20;30.20;65.40
31046;DHT22;17711;54.018;9.300;2023-08-01T13:38:49;31.00;84.00
31046;DHT22;17711;54.018;9.300;2023-08-01T13:41:18;31.40;58.60
31046;DHT22;17711;54.018;9.300;2023-08-01T13:43:47;30.30;58.20
31046;DHT22;17711;54.018;9.300;2023-08-01T13:46:17;29.40;74.70
31046;DHT22;17711;54.018;9.300;2023-08-01T13:49:09;28.50;72.70
31046;DHT22;17711;54.018;9.300;2023-08-01T13:51:43;28.20;99.90
31046;DHT22;17711;54.018;9.300;2023-08-01T13:54:24;28.50;99.90
31046;DHT22;17711;54.018;9.300;2023-08-01T13:57:01;28.90;97.10
31046;DHT22;17711;54.018;9.300;2023-08-01T13:59:31;28.40;95.10
31046;DHT22;17711;54.018;9.300;2023-08-01T14:02:00;27.80;95.60
31046;DHT22;17711;54.018;9.300;2023-08-01T14:04:30;27.30;98.90
31046;DHT22;17711;54.018;9.300;2023-08-01T14:06:59;27.30;95.70
31046;DHT22;17711;54.018;9.300;2023-08-01T14:09:30;27.90;81.60
31046;DHT22;17711;54.018;9.300;2023-08-01T14:12:00;28.10;72.60
31046;DHT22;17711;54.018;9.300;2023-08-01T14:14:29;28.90;93.80
31046;DHT22;17711;54.018;9.300;2023-08-01T14:16:59;28.70;66.60
31046;DHT22;17711;54.018;9.300;2023-08-01T14:19:30;29.10;93.00
31046;DHT22;17711;54.018;9.300;2023-08-01T14:22:01;30.00;68.90
31046;DHT22;17711;54.018;9.300;2023-08-01T14:24:30;30.80;70.00
31046;DHT22;17711;54.018;9.300;2023-08-01T14:27:02;31.40;66.10
31046;DHT22;17711;54.018;9.300;2023-08-01T14:29:31;31.60;58.00
31046;DHT22;17711;54.018;9.300;2023-08-01T14:32:01;31.80;67.30
31046;DHT22;17711;54.018;9.300;2023-08-01T14:34:32;31.70;52.90
31046;DHT22;17711;54.018;9.300;2023-08-01T14:37:04;30.50;54.20
31046;DHT22;17711;54.018;9.300;2023-08-01T14:39:34;29.90;63.10
31046;DHT22;17711;54.018;9.300;2023-08-01T14:42:10;29.40;55.60
31046;DHT22;17711;54.018;9.300;2023-08-01T14:44:43;28.50;68.70
31046;DHT22;17711;54.018;9.300;2023-08-01T14:47:12;28.00;85.30
31046;DHT22;17711;54.018;9.300;2023-08-01T14:49:46;28.30;94.90
31046;DHT22;17711;54.018;9.300;2023-08-01T14:52:23;29.40;72.90
31046;DHT22;17711;54.018;9.300;2023-08-01T14:54:57;30.40;61.20
31046;DHT22;17711;54.018;9.300;2023-08-01T14:57:28;30.40;66.70
31046;DHT22;17711;54.018;9.300;2023-08-01T15:00:05;29.40;63.30
31046;DHT22;17711;54.018;9.300;2023-08-01T15:02:36;28.60;77.80
31046;DHT22;17711;54.018;9.300;2023-08-01T15:05:13;27.70;88.80
31046;DHT22;17711;54.018;9.300;2023-08-01T15:07:51;27.00;99.90
31046;DHT22;17711;54.018;9.300;2023-08-01T15:10:24;27.40;99.90
31046;DHT22;17711;54.018;9.300;2023-08-01T15:13:01;28.00;99.90
31046;DHT22;17711;54.018;9.300;2023-08-01T15:15:42;28.80;99.90
31046;DHT22;17711;54.018;9.300;2023-08-01T15:18:29;29.30;99.90
31046;DHT22;17711;54.018;9.300;2023-08-01T15:21:10;29.80;94.40
31046;DHT22;17711;54.018;9.300;2023-08-01T15:23:48;30.40;80.90
31046;DHT22;17711;54.018;9.300;2023-08-01T15:26:27;30.50;72.50
31046;DHT22;17711;54.018;9.300;2023-08-01T15:29:01;30.40;67.90
31046;DHT22;17711;54.018;9.300;2023-08-01T15:31:31;30.20;85.70
31046;DHT22;17711;54.018;9.300;2023-08-01T15:34:02;29.80;67.10
31046;DHT22;17711;54.018;9.300;2023-08-01T15:36:34;29.30;65.80
31046;DHT22;17711;54.018;9.300;2023-08-01T15:39:05;28.70;75.30
31046;DHT22;17711;54.018;9.300;2023-08-01T15:41:38;28.90;78.60
31046;DHT22;17711;54.018;9.300;2023-08-01T15:44:08;29.00;86.70
31046;DHT22;17711;54.018;9.300;2023-08-01T15:46:39;29.10;88.30
31046;DHT22;17711;54.018;9.300;2023-08-01T15:49:09;28.70;81.60
31046;DHT22;17711;54.018;9.300;2023-08-01T15:51:40;28.60;77.10